createdAt,value
2023-04-29T00:01:42.691Z,11.42
2023-04-29T00:04:10.276Z,11.44
2023-04-29T00:06:37.931Z,11.61
2023-04-29T00:09:05.549Z,11.52
2023-04-29T00:11:33.159Z,11.57
2023-04-29T00:14:01.199Z,11.69
2023-04-29T00:16:28.819Z,11.61
2023-04-29T00:18:57.740Z,11.67
2023-04-29T00:21:27.313Z,11.50
2023-04-29T00:23:54.755Z,11.57
2023-04-29T00:26:22.201Z,11.53
2023-04-29T00:28:49.711Z,11.51
2023-04-29T00:31:17.212Z,11.53
2023-04-29T00:33:45.778Z,11.55
2023-04-29T00:36:14.557Z,11.47
2023-04-29T00:38:42.012Z,11.47
2023-04-29T00:41:09.585Z,11.42
2023-04-29T00:43:37.099Z,11.43
2023-04-29T00:46:04.951Z,11.41
2023-04-29T00:48:33.029Z,11.43
2023-04-29T00:51:00.635Z,11.46
2023-04-29T00:53:29.519Z,11.53
2023-04-29T00:55:57.196Z,11.52
2023-04-29T00:58:33.418Z,11.42
2023-04-29T01:01:01.057Z,11.48
2023-04-29T01:03:29.679Z,11.57
2023-04-29T01:06:04.290Z,11.38
2023-04-29T01:08:39.889Z,11.20
2023-04-29T01:11:10.750Z,11.15
2023-04-29T01:13:44.814Z,11.09
2023-04-29T01:16:14.259Z,11.04
2023-04-29T01:18:45.493Z,10.95
2023-04-29T01:21:12.979Z,10.99
2023-04-29T01:23:41.812Z,10.98
2023-04-29T01:26:09.310Z,11.01
2023-04-29T01:28:44.471Z,10.99
2023-04-29T01:31:16.741Z,10.94
2023-04-29T01:33:49.534Z,11.00
2023-04-29T01:36:27.708Z,11.23
2023-04-29T01:39:03.518Z,11.23
2023-04-29T01:41:37.119Z,11.19
2023-04-29T01:44:05.140Z,11.09
2023-04-29T01:46:33.230Z,11.24
2023-04-29T01:49:00.864Z,11.31
2023-04-29T01:51:28.329Z,11.16
2023-04-29T01:53:57.468Z,11.16
2023-04-29T01:56:24.951Z,11.11
2023-04-29T01:58:52.412Z,11.09
2023-04-29T02:01:19.906Z,11.07
2023-04-29T02:03:47.493Z,11.17
2023-04-29T02:06:15.033Z,11.27
2023-04-29T02:08:42.606Z,11.38
2023-04-29T02:11:11.399Z,11.58
2023-04-29T02:13:38.912Z,11.74
2023-04-29T02:16:10.013Z,11.65
2023-04-29T02:18:37.711Z,11.70
2023-04-29T02:21:05.502Z,11.69
2023-04-29T02:23:33.001Z,11.63
2023-04-29T02:26:01.559Z,11.66
2023-04-29T02:28:30.331Z,11.67
2023-04-29T02:30:57.765Z,11.72
2023-04-29T02:33:25.317Z,11.79
2023-04-29T02:35:52.836Z,11.95
2023-04-29T02:38:20.935Z,11.96
2023-04-29T02:40:48.741Z,11.98
2023-04-29T02:43:16.203Z,12.09
2023-04-29T02:45:45.034Z,12.08
2023-04-29T02:48:12.602Z,12.16
2023-04-29T02:50:40.124Z,12.12
2023-04-29T02:53:07.684Z,12.14
2023-04-29T02:55:35.156Z,12.10
2023-04-29T02:58:04.178Z,12.07
2023-04-29T03:00:31.724Z,12.05
2023-04-29T03:03:01.614Z,12.10
2023-04-29T03:05:29.267Z,12.18
2023-04-29T03:07:56.698Z,12.22
2023-04-29T03:10:24.163Z,12.20
2023-04-29T03:12:51.602Z,12.25
2023-04-29T03:15:19.516Z,12.22
2023-04-29T03:17:47.150Z,12.24
2023-04-29T03:20:15.971Z,12.11
2023-04-29T03:22:43.440Z,12.28
2023-04-29T03:25:11.562Z,12.02
2023-04-29T03:27:39.037Z,11.95
2023-04-29T03:30:08.026Z,11.95
2023-04-29T03:32:35.532Z,11.93
2023-04-29T03:35:03.378Z,12.08
2023-04-29T03:37:32.166Z,11.92
2023-04-29T03:39:59.610Z,12.04
2023-04-29T03:42:27.038Z,11.95
2023-04-29T03:44:54.481Z,12.02
2023-04-29T03:47:21.970Z,11.95
2023-04-29T03:49:49.553Z,11.89
2023-04-29T03:52:17.169Z,12.02
2023-04-29T03:54:46.277Z,12.03
2023-04-29T03:57:13.705Z,12.08
2023-04-29T03:59:41.228Z,12.15
2023-04-29T04:02:09.224Z,12.16
2023-04-29T04:04:36.916Z,12.22
2023-04-29T04:07:04.682Z,12.17
2023-04-29T04:09:33.406Z,12.14
2023-04-29T04:12:02.353Z,12.06
2023-04-29T04:14:30.248Z,12.05
2023-04-29T04:16:57.691Z,12.00
2023-04-29T04:19:25.456Z,11.99
2023-04-29T04:21:52.940Z,12.06
2023-04-29T04:24:20.405Z,11.95
2023-04-29T04:26:47.906Z,11.92
2023-04-29T04:29:16.684Z,11.96
2023-04-29T04:31:46.804Z,11.95
2023-04-29T04:34:14.646Z,11.96
2023-04-29T04:36:42.383Z,11.84
2023-04-29T04:39:09.975Z,11.87
2023-04-29T04:41:37.422Z,11.89
2023-04-29T04:44:05.542Z,11.90
2023-04-29T04:46:35.035Z,11.83
2023-04-29T04:49:02.493Z,11.94
2023-04-29T04:51:29.952Z,11.67
2023-04-29T04:53:57.394Z,11.78
2023-04-29T04:56:24.836Z,11.62
2023-04-29T04:58:52.292Z,11.69
2023-04-29T05:01:19.786Z,11.46
2023-04-29T05:03:48.789Z,11.66
2023-04-29T05:06:16.427Z,11.56
2023-04-29T05:08:43.890Z,11.62
2023-04-29T05:11:17.597Z,11.79
2023-04-29T05:13:45.066Z,11.91
2023-04-29T05:16:12.553Z,11.70
2023-04-29T05:18:40.016Z,11.77
2023-04-29T05:21:08.832Z,11.63
2023-04-29T05:23:36.274Z,11.59
2023-04-29T05:26:03.728Z,11.70
2023-04-29T05:28:31.223Z,11.79
2023-04-29T05:30:58.810Z,11.80
2023-04-29T05:33:26.289Z,11.86
2023-04-29T05:35:53.750Z,11.85
2023-04-29T05:38:28.684Z,11.99
2023-04-29T05:40:56.348Z,11.96
2023-04-29T05:43:23.804Z,12.02
2023-04-29T05:45:51.360Z,12.02
2023-04-29T05:48:18.832Z,11.94
2023-04-29T05:50:48.105Z,12.00
2023-04-29T05:53:15.567Z,11.98
2023-04-29T05:55:45.176Z,12.01
2023-04-29T05:58:13.215Z,12.07
2023-04-29T06:00:40.793Z,12.14
2023-04-29T06:03:08.371Z,12.18
2023-04-29T06:05:36.353Z,12.20
2023-04-29T06:08:04.818Z,12.19
2023-04-29T06:10:33.238Z,12.27
2023-04-29T06:13:02.114Z,12.30
2023-04-29T06:15:29.638Z,12.34
2023-04-29T06:17:57.343Z,12.39
2023-04-29T06:20:25.013Z,12.35
2023-04-29T06:22:52.463Z,12.48
2023-04-29T06:25:19.914Z,12.54
2023-04-29T06:27:47.581Z,12.77
2023-04-29T06:30:16.449Z,12.97
2023-04-29T06:32:43.969Z,13.17
2023-04-29T06:35:11.556Z,13.36
2023-04-29T06:37:38.998Z,13.43
2023-04-29T06:40:07.848Z,13.44
2023-04-29T06:42:36.683Z,13.45
2023-04-29T06:45:05.254Z,13.49
2023-04-29T06:47:34.168Z,13.38
2023-04-29T06:50:01.941Z,13.32
2023-04-29T06:52:29.656Z,13.34
2023-04-29T06:54:57.157Z,13.42
2023-04-29T06:57:24.707Z,13.51
2023-04-29T06:59:52.547Z,13.57
2023-04-29T07:02:20.169Z,13.63
2023-04-29T07:04:50.232Z,13.70
2023-04-29T07:07:17.873Z,13.65
2023-04-29T07:09:45.616Z,13.58
2023-04-29T07:12:13.051Z,13.49
2023-04-29T07:14:40.854Z,13.47
2023-04-29T07:17:08.336Z,13.55
2023-04-29T07:19:35.899Z,13.42
2023-04-29T07:22:04.956Z,13.48
2023-04-29T07:24:32.416Z,13.43
2023-04-29T07:26:59.910Z,13.48
2023-04-29T07:29:27.355Z,13.57
2023-04-29T07:31:54.861Z,13.38
2023-04-29T07:34:22.349Z,13.34
2023-04-29T07:36:49.786Z,13.35
2023-04-29T07:39:18.689Z,13.40
2023-04-29T07:41:46.208Z,13.37
2023-04-29T07:44:13.762Z,13.30
2023-04-29T07:46:41.887Z,13.30
2023-04-29T07:49:10.248Z,13.22
2023-04-29T07:51:37.711Z,13.25
2023-04-29T07:54:05.414Z,13.31
2023-04-29T07:56:34.280Z,13.25
2023-04-29T07:59:01.788Z,13.28
2023-04-29T08:01:29.285Z,13.28
2023-04-29T08:03:56.971Z,13.21
2023-04-29T08:06:24.722Z,13.25
2023-04-29T08:08:52.783Z,13.29
2023-04-29T08:11:21.374Z,13.06
2023-04-29T08:13:50.170Z,12.93
2023-04-29T08:16:17.843Z,13.13
2023-04-29T08:18:45.389Z,13.19
2023-04-29T08:21:12.852Z,13.29
2023-04-29T08:23:40.553Z,13.27
2023-04-29T08:26:08.047Z,13.18
2023-04-29T08:28:35.488Z,13.04
2023-04-29T08:31:07.015Z,13.09
2023-04-29T08:33:34.478Z,13.22
2023-04-29T08:36:03.762Z,13.09
2023-04-29T08:38:31.916Z,13.12
2023-04-29T08:40:59.592Z,13.20
2023-04-29T08:43:27.831Z,13.08
2023-04-29T08:45:56.316Z,13.21
2023-04-29T08:48:26.058Z,13.34
2023-04-29T08:50:53.604Z,13.17
2023-04-29T08:53:21.658Z,13.15
2023-04-29T08:55:49.489Z,13.07
2023-04-29T08:58:17.546Z,13.14
2023-04-29T09:00:45.401Z,13.39
2023-04-29T09:03:18.311Z,13.34
2023-04-29T09:05:50.304Z,13.35
2023-04-29T09:08:18.382Z,13.24
2023-04-29T09:10:45.896Z,13.07
2023-04-29T09:13:24.386Z,13.31
2023-04-29T09:15:51.937Z,13.45
2023-04-29T09:18:42.382Z,13.36
2023-04-29T09:21:15.911Z,13.45
2023-04-29T09:23:43.616Z,13.41
2023-04-29T09:26:11.054Z,13.41
2023-04-29T09:28:39.772Z,13.25
2023-04-29T09:31:08.553Z,13.46
2023-04-29T09:33:50.652Z,13.19
2023-04-29T09:39:16.471Z,13.27
2023-04-29T09:41:59.181Z,12.96
2023-04-29T09:44:29.490Z,13.18
2023-04-29T09:46:59.545Z,13.11
2023-04-29T09:49:28.234Z,13.24
2023-04-29T09:51:59.411Z,13.23
2023-04-29T09:54:29.416Z,13.31
2023-04-29T09:56:58.237Z,13.31
2023-04-29T09:59:26.833Z,13.20
2023-04-29T10:01:55.911Z,13.42
2023-04-29T10:04:24.881Z,13.22
2023-04-29T10:06:53.853Z,13.29
2023-04-29T10:09:22.854Z,13.37
2023-04-29T10:11:53.347Z,13.43
2023-04-29T10:14:22.398Z,13.19
2023-04-29T10:16:51.780Z,13.41
2023-04-29T10:19:27.554Z,13.43
2023-04-29T10:21:56.197Z,13.37
2023-04-29T10:24:23.722Z,13.52
2023-04-29T10:26:53.564Z,13.46
2023-04-29T10:29:23.471Z,13.55
2023-04-29T10:31:51.757Z,13.40
2023-04-29T10:34:19.726Z,13.55
2023-04-29T10:36:48.031Z,13.76
2023-04-29T10:39:24.338Z,13.75
2023-04-29T10:41:53.898Z,13.79
2023-04-29T10:44:21.322Z,14.11
2023-04-29T10:46:48.847Z,14.36
2023-04-29T10:49:16.324Z,14.59
2023-04-29T10:51:45.540Z,14.73
2023-04-29T10:54:14.731Z,14.47
2023-04-29T10:56:44.114Z,14.55
2023-04-29T10:59:14.267Z,14.71
2023-04-29T11:01:46.795Z,14.90
2023-04-29T11:04:14.588Z,14.87
2023-04-29T11:06:45.209Z,15.08
2023-04-29T11:09:14.971Z,15.39
2023-04-29T11:12:03.121Z,15.73
2023-04-29T11:14:34.191Z,15.52
2023-04-29T11:17:03.455Z,15.66
2023-04-29T11:19:35.266Z,15.58
2023-04-29T11:22:11.714Z,15.62
2023-04-29T11:24:50.419Z,15.53
2023-04-29T11:27:19.338Z,15.57
2023-04-29T11:29:48.349Z,15.49
2023-04-29T11:32:15.877Z,15.64
2023-04-29T11:34:43.319Z,15.81
2023-04-29T11:37:11.526Z,15.82
2023-04-29T11:39:39.008Z,15.72
2023-04-29T11:42:07.058Z,15.70
2023-04-29T11:44:35.823Z,15.91
2023-04-29T11:47:05.210Z,15.98
2023-04-29T11:49:33.394Z,15.83
2023-04-29T11:52:01.029Z,16.18
2023-04-29T11:54:28.722Z,16.35
2023-04-29T11:56:56.513Z,16.40
2023-04-29T11:59:24.047Z,16.28
2023-04-29T12:01:52.015Z,16.56
2023-04-29T12:04:21.060Z,16.57
2023-04-29T12:06:52.518Z,16.64
2023-04-29T12:09:20.378Z,16.94
2023-04-29T12:11:48.215Z,16.97
2023-04-29T12:14:15.758Z,17.14
2023-04-29T12:16:43.516Z,17.21
2023-04-29T12:19:11.977Z,16.68
2023-04-29T12:21:49.408Z,16.42
2023-04-29T12:24:17.478Z,16.33
2023-04-29T12:26:46.457Z,16.53
2023-04-29T12:29:14.348Z,16.70
2023-04-29T12:31:41.985Z,16.72
2023-04-29T12:34:10.199Z,16.65
2023-04-29T12:36:38.066Z,16.55
2023-04-29T12:39:10.763Z,16.60
2023-04-29T12:41:39.260Z,16.55
2023-04-29T12:44:07.395Z,16.60
2023-04-29T12:46:38.878Z,16.34
2023-04-29T12:49:06.787Z,16.17
2023-04-29T12:51:34.836Z,16.17
2023-04-29T12:54:06.187Z,15.84
2023-04-29T12:56:35.002Z,15.96
2023-04-29T12:59:09.871Z,15.80
2023-04-29T13:01:37.696Z,15.76
2023-04-29T13:04:08.700Z,15.95
2023-04-29T13:06:39.424Z,15.97
2023-04-29T13:09:07.688Z,16.13
2023-04-29T13:11:36.930Z,16.06
2023-04-29T13:14:05.119Z,15.98
2023-04-29T13:16:33.123Z,15.94
2023-04-29T13:19:12.414Z,16.00
2023-04-29T13:21:48.548Z,16.10
2023-04-29T13:24:18.204Z,16.15
2023-04-29T13:26:49.580Z,16.12
2023-04-29T13:29:18.447Z,16.06
2023-04-29T13:31:46.035Z,16.04
2023-04-29T13:34:13.648Z,16.03
2023-04-29T13:36:41.140Z,16.01
2023-04-29T13:39:08.871Z,16.00
2023-04-29T13:41:36.379Z,16.02
2023-04-29T13:44:11.242Z,16.03
2023-04-29T13:46:49.105Z,15.90
2023-04-29T13:49:45.424Z,15.84
2023-04-29T13:53:00.751Z,15.72
2023-04-29T13:55:18.542Z,15.72
2023-04-29T13:58:31.130Z,15.63
2023-04-29T14:05:28.886Z,15.50
2023-04-29T14:07:56.483Z,15.55
2023-04-29T14:10:24.046Z,15.58
2023-04-29T14:12:51.496Z,15.63
2023-04-29T14:15:18.965Z,15.79
2023-04-29T14:17:50.049Z,15.81
2023-04-29T14:20:17.523Z,15.83
2023-04-29T14:22:45.234Z,15.83
2023-04-29T14:25:13.568Z,15.78
2023-04-29T14:27:41.057Z,15.75
2023-04-29T14:30:09.661Z,15.86
2023-04-29T14:32:37.132Z,15.87
2023-04-29T14:35:06.905Z,15.86
2023-04-29T14:37:34.345Z,15.90
2023-04-29T14:40:01.852Z,15.92
2023-04-29T14:42:29.311Z,15.95
2023-04-29T14:44:56.856Z,16.04
2023-04-29T14:47:24.450Z,15.97
2023-04-29T14:49:51.917Z,15.90
2023-04-29T14:52:20.687Z,15.91
2023-04-29T14:54:48.156Z,15.87
2023-04-29T14:57:15.610Z,15.82
2023-04-29T14:59:43.070Z,15.83
2023-04-29T15:02:10.617Z,15.83
2023-04-29T15:04:39.698Z,15.77
2023-04-29T15:07:07.298Z,15.86
2023-04-29T15:09:36.323Z,15.78
2023-04-29T15:12:04.470Z,15.74
2023-04-29T15:14:31.946Z,15.77
2023-04-29T15:16:59.396Z,15.65
2023-04-29T15:19:26.870Z,15.66
2023-04-29T15:21:54.405Z,15.59
2023-04-29T15:24:21.818Z,15.55
2023-04-29T15:26:51.905Z,15.52
2023-04-29T15:29:19.348Z,15.47
2023-04-29T15:31:47.122Z,15.42
2023-04-29T15:34:14.577Z,15.39
2023-04-29T15:36:42.818Z,15.32
2023-04-29T15:39:11.294Z,15.33
2023-04-29T15:41:38.955Z,15.30
2023-04-29T15:44:07.810Z,15.14
2023-04-29T15:46:35.276Z,14.94
2023-04-29T15:49:04.420Z,14.78
2023-04-29T15:51:32.392Z,14.81
2023-04-29T15:54:00.018Z,14.70
2023-04-29T15:56:27.461Z,14.66
2023-04-29T15:58:54.910Z,14.53
2023-04-29T16:01:23.800Z,14.57
2023-04-29T16:03:51.401Z,14.56
2023-04-29T16:06:18.972Z,14.44
2023-04-29T16:08:46.901Z,14.42
2023-04-29T16:11:14.359Z,14.41
2023-04-29T16:13:41.782Z,14.37
2023-04-29T16:16:09.382Z,14.26
2023-04-29T16:18:39.603Z,14.24
2023-04-29T16:21:07.098Z,14.18
2023-04-29T16:23:34.659Z,14.17
2023-04-29T16:26:02.321Z,14.20
2023-04-29T16:28:29.784Z,14.21
2023-04-29T16:30:57.228Z,14.22
2023-04-29T16:33:24.691Z,14.23
2023-04-29T16:35:53.886Z,14.23
2023-04-29T16:38:21.585Z,14.18
2023-04-29T16:40:50.643Z,14.13
2023-04-29T16:43:19.047Z,14.16
2023-04-29T16:45:46.496Z,14.15
2023-04-29T16:48:13.970Z,14.05
2023-04-29T16:50:41.394Z,13.95
2023-04-29T16:53:10.145Z,13.95
2023-04-29T16:55:37.593Z,13.97
2023-04-29T16:58:05.367Z,13.81
2023-04-29T17:00:32.939Z,13.83
2023-04-29T17:03:00.724Z,13.79
2023-04-29T17:05:28.226Z,13.77
2023-04-29T17:07:55.988Z,13.79
2023-04-29T17:10:25.180Z,13.72
2023-04-29T17:12:53.071Z,13.82
2023-04-29T17:15:20.554Z,13.77
2023-04-29T17:17:48.049Z,13.87
2023-04-29T17:20:15.540Z,13.87
2023-04-29T17:22:43.008Z,13.85
2023-04-29T17:25:10.864Z,13.93
2023-04-29T17:27:39.628Z,13.92
2023-04-29T17:30:08.639Z,13.82
2023-04-29T17:32:39.095Z,13.86
2023-04-29T17:35:07.900Z,13.77
2023-04-29T17:37:36.098Z,13.82
2023-04-29T17:40:04.296Z,13.81
2023-04-29T17:42:31.863Z,13.72
2023-04-29T17:45:00.703Z,13.67
2023-04-29T17:47:28.209Z,13.64
2023-04-29T17:49:56.325Z,13.63
2023-04-29T17:52:24.770Z,13.68
2023-04-29T17:54:52.206Z,13.70
2023-04-29T17:57:19.674Z,13.71
2023-04-29T17:59:47.522Z,13.61
2023-04-29T18:02:16.356Z,13.61
2023-04-29T18:04:43.896Z,13.64
2023-04-29T18:07:11.385Z,13.58
2023-04-29T18:09:39.237Z,13.54
2023-04-29T18:12:06.820Z,13.52
2023-04-29T18:14:34.283Z,13.41
2023-04-29T18:17:01.792Z,13.48
2023-04-29T18:19:30.618Z,13.54
2023-04-29T18:21:59.129Z,13.49
2023-04-29T18:24:27.734Z,13.55
2023-04-29T18:26:56.670Z,13.50
2023-04-29T18:29:24.252Z,13.34
2023-04-29T18:31:54.488Z,13.44
2023-04-29T18:34:22.063Z,13.40
2023-04-29T18:36:51.205Z,13.43
2023-04-29T18:39:18.688Z,13.44
2023-04-29T18:41:46.186Z,13.42
2023-04-29T18:44:13.732Z,13.41
2023-04-29T18:46:41.534Z,13.39
2023-04-29T18:49:11.696Z,13.45
2023-04-29T18:51:40.386Z,13.48
2023-04-29T18:54:09.459Z,13.41
2023-04-29T18:56:38.914Z,13.42
2023-04-29T18:59:08.715Z,13.46
2023-04-29T19:01:36.213Z,13.37
2023-04-29T19:04:05.889Z,13.40
2023-04-29T19:06:34.571Z,13.39
2023-04-29T19:09:02.094Z,13.40
2023-04-29T19:11:31.510Z,13.34
2023-04-29T19:13:59.073Z,13.37
2023-04-29T19:16:26.687Z,13.37
2023-04-29T19:18:54.194Z,13.37
2023-04-29T19:21:21.849Z,13.37
2023-04-29T19:23:49.329Z,13.31
2023-04-29T19:26:16.856Z,13.28
2023-04-29T19:28:45.679Z,13.30
2023-04-29T19:31:13.226Z,13.34
2023-04-29T19:33:40.703Z,13.30
2023-04-29T19:36:08.336Z,13.26
2023-04-29T19:38:36.350Z,13.29
2023-04-29T19:41:03.875Z,13.24
2023-04-29T19:43:31.732Z,13.27
2023-04-29T19:46:00.532Z,13.30
2023-04-29T19:48:28.188Z,13.24
2023-04-29T19:50:59.404Z,13.17
2023-04-29T19:53:26.976Z,13.28
2023-04-29T19:55:54.892Z,13.27
2023-04-29T19:58:22.419Z,13.27
2023-04-29T20:00:50.025Z,13.28
2023-04-29T20:03:18.965Z,13.31
2023-04-29T20:05:47.280Z,13.24
2023-04-29T20:08:14.785Z,13.13
2023-04-29T20:10:42.323Z,13.14
2023-04-29T20:13:09.793Z,13.15
2023-04-29T20:15:37.303Z,13.12
2023-04-29T20:18:05.018Z,13.21
2023-04-29T20:20:33.892Z,13.30
2023-04-29T20:23:01.445Z,13.28
2023-04-29T20:25:28.971Z,13.31
2023-04-29T20:27:56.764Z,13.30
2023-04-29T20:30:25.764Z,13.17
2023-04-29T20:32:53.294Z,13.24
2023-04-29T20:35:21.573Z,13.22
2023-04-29T20:37:50.398Z,13.30
2023-04-29T20:40:18.320Z,13.30
2023-04-29T20:42:45.834Z,13.31
2023-04-29T20:45:13.489Z,13.22
2023-04-29T20:47:41.079Z,13.12
2023-04-29T20:50:09.379Z,13.32
2023-04-29T20:52:37.939Z,13.26
2023-04-29T20:55:07.272Z,13.29
2023-04-29T20:57:34.727Z,13.21
2023-04-29T21:00:02.186Z,13.19
2023-04-29T21:02:29.699Z,13.26
2023-04-29T21:04:57.348Z,13.18
2023-04-29T21:07:24.830Z,13.13
2023-04-29T21:09:52.454Z,13.13
2023-04-29T21:12:21.462Z,13.12
2023-04-29T21:14:48.999Z,13.14
2023-04-29T21:17:16.526Z,13.13
2023-04-29T21:19:44.186Z,13.18
2023-04-29T21:22:11.696Z,13.16
2023-04-29T21:24:39.135Z,13.13
2023-04-29T21:27:06.817Z,13.09
2023-04-29T21:29:40.483Z,12.96
2023-04-29T21:32:08.425Z,13.05
2023-04-29T21:34:36.019Z,13.00
2023-04-29T21:37:03.501Z,12.81
2023-04-29T21:39:31.991Z,12.95
2023-04-29T21:42:00.593Z,13.00
2023-04-29T21:44:28.052Z,12.96
2023-04-29T21:46:59.559Z,12.95
2023-04-29T21:49:28.337Z,12.91
2023-04-29T21:51:56.086Z,12.98
2023-04-29T21:54:23.531Z,12.87
2023-04-29T21:56:50.965Z,12.94
2023-04-29T21:59:18.424Z,12.85
2023-04-29T22:02:00.019Z,12.92
2023-04-29T22:04:29.223Z,12.92
2023-04-29T22:06:57.170Z,12.92
2023-04-29T22:09:24.618Z,12.97
2023-04-29T22:11:52.053Z,12.96
2023-04-29T22:14:19.495Z,12.99
2023-04-29T22:16:47.010Z,13.00
2023-04-29T22:19:14.526Z,12.90
2023-04-29T22:21:43.391Z,12.94
2023-04-29T22:24:10.969Z,12.94
2023-04-29T22:26:38.422Z,12.92
2023-04-29T22:29:05.899Z,12.95
2023-04-29T22:31:33.359Z,12.89
2023-04-29T22:34:00.831Z,12.80
2023-04-29T22:36:28.328Z,12.76
2023-04-29T22:38:57.148Z,12.85
2023-04-29T22:41:24.598Z,12.91
2023-04-29T22:43:56.923Z,12.84
2023-04-29T22:46:24.652Z,12.91
2023-04-29T22:48:52.176Z,12.92
2023-04-29T22:51:21.713Z,12.87
2023-04-29T22:53:49.303Z,12.90
2023-04-29T22:56:18.172Z,12.78
2023-04-29T22:58:45.712Z,12.75
2023-04-29T23:01:13.288Z,12.79
2023-04-29T23:03:41.028Z,12.77
2023-04-29T23:06:08.537Z,12.69
2023-04-29T23:08:36.163Z,12.64
2023-04-29T23:11:03.661Z,12.67
2023-04-29T23:13:32.877Z,12.70
2023-04-29T23:16:01.094Z,12.67
2023-04-29T23:18:28.670Z,12.65
2023-04-29T23:20:56.863Z,12.67
2023-04-29T23:23:24.362Z,12.60
2023-04-29T23:25:51.897Z,12.58
2023-04-29T23:28:19.314Z,12.59
2023-04-29T23:30:48.958Z,12.56
2023-04-29T23:33:16.397Z,12.57
2023-04-29T23:35:49.539Z,12.64
2023-04-29T23:38:17.160Z,12.61
2023-04-29T23:40:44.744Z,12.54
2023-04-29T23:43:12.194Z,12.46
2023-04-29T23:45:39.706Z,12.52
2023-04-29T23:48:09.351Z,12.44
2023-04-29T23:50:36.998Z,12.55
2023-04-29T23:53:04.564Z,12.54
2023-04-29T23:55:32.253Z,12.50
2023-04-29T23:57:59.855Z,12.51
